createdAt,value
2018-08-24T00:00:20.344Z,100.00
2018-08-24T00:02:52.354Z,100.00
2018-08-24T00:05:24.335Z,100.00
2018-08-24T00:07:56.306Z,100.00
2018-08-24T00:10:28.262Z,100.00
2018-08-24T00:13:00.256Z,100.00
2018-08-24T00:15:32.283Z,100.00
2018-08-24T00:18:04.263Z,100.00
2018-08-24T00:20:36.247Z,100.00
2018-08-24T00:23:08.217Z,100.00
2018-08-24T00:25:40.190Z,100.00
2018-08-24T00:28:12.168Z,100.00
2018-08-24T00:30:44.146Z,100.00
2018-08-24T00:33:16.134Z,100.00
2018-08-24T00:35:49.276Z,100.00
2018-08-24T00:38:21.386Z,100.00
2018-08-24T00:40:56.752Z,100.00
2018-08-24T00:43:28.841Z,100.00
2018-08-24T00:46:00.948Z,100.00
2018-08-24T00:48:33.088Z,100.00
2018-08-24T00:51:05.244Z,100.00
2018-08-24T00:53:38.940Z,100.00
2018-08-24T00:56:11.504Z,100.00
2018-08-24T00:58:43.636Z,100.00
2018-08-24T01:01:15.764Z,100.00
2018-08-24T01:03:47.874Z,100.00
2018-08-24T01:06:23.556Z,100.00
2018-08-24T01:08:55.617Z,100.00
2018-08-24T01:12:35.983Z,100.00
2018-08-24T01:15:08.116Z,100.00
2018-08-24T01:17:45.921Z,100.00
2018-08-24T01:20:22.436Z,100.00
2018-08-24T01:22:54.550Z,100.00
2018-08-24T01:25:26.648Z,100.00
2018-08-24T01:27:58.743Z,100.00
2018-08-24T01:30:30.880Z,100.00
2018-08-24T01:33:03.021Z,100.00
2018-08-24T01:35:35.207Z,100.00
2018-08-24T01:38:07.470Z,100.00
2018-08-24T01:40:39.661Z,100.00
2018-08-24T01:43:11.807Z,100.00
2018-08-24T01:45:43.928Z,100.00
2018-08-24T01:48:16.088Z,100.00
2018-08-24T01:50:48.151Z,100.00
2018-08-24T01:53:20.268Z,100.00
2018-08-24T01:55:52.430Z,100.00
2018-08-24T01:58:24.528Z,100.00
2018-08-24T02:00:56.585Z,100.00
2018-08-24T02:03:28.675Z,100.00
2018-08-24T02:06:05.874Z,100.00
2018-08-24T02:08:37.997Z,100.00
2018-08-24T02:11:15.735Z,100.00
2018-08-24T02:13:53.587Z,100.00
2018-08-24T02:16:30.232Z,100.00
2018-08-24T02:19:08.672Z,100.00
2018-08-24T02:21:46.665Z,100.00
2018-08-24T02:24:18.737Z,100.00
2018-08-24T02:26:50.825Z,100.00
2018-08-24T02:29:22.893Z,100.00
2018-08-24T02:31:54.972Z,100.00
2018-08-24T02:34:27.056Z,100.00
2018-08-24T02:36:59.187Z,100.00
2018-08-24T02:39:31.265Z,100.00
2018-08-24T02:42:03.356Z,100.00
2018-08-24T02:44:35.468Z,100.00
2018-08-24T02:47:07.564Z,100.00
2018-08-24T02:49:39.825Z,100.00
2018-08-24T02:52:11.904Z,100.00
2018-08-24T02:54:44.814Z,100.00
2018-08-24T02:57:16.921Z,100.00
2018-08-24T02:59:49.063Z,100.00
2018-08-24T03:02:21.152Z,100.00
2018-08-24T03:04:53.293Z,100.00
2018-08-24T03:07:25.694Z,100.00
2018-08-24T03:09:57.758Z,100.00
2018-08-24T03:12:29.819Z,100.00
2018-08-24T03:15:01.911Z,100.00
2018-08-24T03:17:39.691Z,100.00
2018-08-24T03:20:11.852Z,100.00
2018-08-24T03:22:44.051Z,100.00
2018-08-24T03:25:16.217Z,100.00
2018-08-24T03:27:48.342Z,100.00
2018-08-24T03:30:20.430Z,100.00
2018-08-24T03:32:52.506Z,100.00
2018-08-24T03:35:24.581Z,100.00
2018-08-24T03:37:56.800Z,100.00
2018-08-24T03:40:28.926Z,100.00
2018-08-24T03:43:01.168Z,100.00
2018-08-24T03:45:33.244Z,100.00
2018-08-24T03:48:05.376Z,100.00
2018-08-24T03:50:37.464Z,100.00
2018-08-24T03:53:09.641Z,100.00
2018-08-24T03:55:42.836Z,100.00
2018-08-24T03:58:15.003Z,100.00
2018-08-24T04:00:47.180Z,100.00
2018-08-24T04:03:19.347Z,100.00
2018-08-24T04:05:53.538Z,100.00
2018-08-24T04:08:27.440Z,100.00
2018-08-24T04:10:59.597Z,100.00
2018-08-24T04:13:31.701Z,100.00
2018-08-24T04:16:03.793Z,100.00
2018-08-24T04:18:35.924Z,100.00
2018-08-24T04:21:08.012Z,100.00
2018-08-24T04:23:40.169Z,100.00
2018-08-24T04:26:12.496Z,100.00
2018-08-24T04:28:44.570Z,100.00
2018-08-24T04:31:16.727Z,100.00
2018-08-24T04:33:48.830Z,100.00
2018-08-24T04:36:20.927Z,100.00
2018-08-24T04:38:53.065Z,100.00
2018-08-24T04:41:25.336Z,100.00
2018-08-24T04:43:57.420Z,100.00
2018-08-24T04:46:29.499Z,100.00
2018-08-24T04:49:01.587Z,100.00
2018-08-24T04:51:33.753Z,100.00
2018-08-24T04:54:05.875Z,100.00
2018-08-24T04:56:38.040Z,100.00
2018-08-24T04:59:10.100Z,100.00
2018-08-24T05:01:42.165Z,100.00
2018-08-24T05:04:14.237Z,100.00
2018-08-24T05:06:46.298Z,100.00
2018-08-24T05:09:18.334Z,100.00
2018-08-24T05:11:50.463Z,100.00
2018-08-24T05:14:22.574Z,100.00
2018-08-24T05:16:54.666Z,100.00
2018-08-24T05:19:26.774Z,100.00
2018-08-24T05:21:58.866Z,100.00
2018-08-24T05:24:30.915Z,100.00
2018-08-24T05:27:02.978Z,100.00
2018-08-24T05:29:35.040Z,100.00
2018-08-24T05:32:07.137Z,100.00
2018-08-24T05:34:39.205Z,100.00
2018-08-24T05:37:11.279Z,100.00
2018-08-24T05:39:44.399Z,100.00
2018-08-24T05:42:16.512Z,100.00
2018-08-24T05:44:48.579Z,100.00
2018-08-24T05:47:20.687Z,100.00
2018-08-24T05:49:52.764Z,100.00
2018-08-24T05:52:24.907Z,100.00
2018-08-24T05:54:57.133Z,100.00
2018-08-24T05:57:29.262Z,100.00
2018-08-24T06:00:01.380Z,100.00
2018-08-24T06:02:35.541Z,100.00
2018-08-24T06:05:08.679Z,100.00
2018-08-24T06:07:40.902Z,100.00
2018-08-24T06:10:12.971Z,100.00
2018-08-24T06:12:46.092Z,100.00
2018-08-24T06:15:18.362Z,100.00
2018-08-24T06:17:52.692Z,100.00
2018-08-24T06:20:24.899Z,100.00
2018-08-24T06:22:57.016Z,100.00
2018-08-24T06:25:29.064Z,100.00
2018-08-24T06:28:01.355Z,100.00
2018-08-24T06:30:33.461Z,99.43
2018-08-24T06:33:05.611Z,98.93
2018-08-24T06:35:37.803Z,97.56
2018-08-24T06:38:10.076Z,96.64
2018-08-24T06:40:42.346Z,98.94
2018-08-24T06:43:14.511Z,100.00
2018-08-24T06:45:46.717Z,99.63
2018-08-24T06:48:18.964Z,97.73
2018-08-24T06:50:51.159Z,96.45
2018-08-24T06:53:23.437Z,96.96
2018-08-24T06:55:55.411Z,96.13
2018-08-24T06:58:27.728Z,97.20
2018-08-24T07:00:59.889Z,98.61
2018-08-24T07:03:31.964Z,99.59
2018-08-24T07:06:04.340Z,99.51
2018-08-24T07:08:36.455Z,98.93
2018-08-24T07:11:08.568Z,98.02
2018-08-24T07:13:40.693Z,96.63
2018-08-24T07:16:12.918Z,95.45
2018-08-24T07:18:45.013Z,94.80
2018-08-24T07:21:17.196Z,93.65
2018-08-24T07:23:49.353Z,93.34
2018-08-24T07:26:21.516Z,91.38
2018-08-24T07:28:53.622Z,90.87
2018-08-24T07:31:25.716Z,91.65
2018-08-24T07:33:57.850Z,93.29
2018-08-24T07:36:29.936Z,91.93
2018-08-24T07:39:02.087Z,93.67
2018-08-24T07:41:34.365Z,93.83
2018-08-24T07:44:06.646Z,94.67
2018-08-24T07:46:38.837Z,95.58
2018-08-24T07:49:10.998Z,96.16
2018-08-24T07:51:43.091Z,98.10
2018-08-24T07:54:15.159Z,100.00
2018-08-24T07:56:47.264Z,100.00
2018-08-24T07:59:19.349Z,100.00
2018-08-24T08:01:51.416Z,100.00
2018-08-24T08:04:23.539Z,100.00
2018-08-24T08:06:55.608Z,100.00
2018-08-24T08:09:27.754Z,100.00
2018-08-24T08:12:00.068Z,100.00
2018-08-24T08:14:32.159Z,100.00
2018-08-24T08:17:04.200Z,100.00
2018-08-24T08:19:36.284Z,100.00
2018-08-24T08:22:08.941Z,100.00
2018-08-24T08:24:41.019Z,100.00
2018-08-24T08:27:13.135Z,99.95
2018-08-24T08:29:50.888Z,100.00
2018-08-24T08:32:22.990Z,99.55
2018-08-24T08:34:55.062Z,99.89
2018-08-24T08:37:27.128Z,99.94
2018-08-24T08:40:01.143Z,100.00
2018-08-24T08:42:33.179Z,100.00
2018-08-24T08:45:05.319Z,99.94
2018-08-24T08:47:37.372Z,100.00
2018-08-24T08:50:09.442Z,99.14
2018-08-24T08:52:41.567Z,99.47
2018-08-24T08:55:13.604Z,98.21
2018-08-24T08:57:45.743Z,98.41
2018-08-24T09:00:17.888Z,99.72
2018-08-24T09:02:49.954Z,99.26
2018-08-24T09:05:22.060Z,99.82
2018-08-24T09:07:54.158Z,100.00
2018-08-24T09:10:26.227Z,100.00
2018-08-24T09:12:58.292Z,100.00
2018-08-24T09:15:31.423Z,100.00
2018-08-24T09:18:09.203Z,100.00
2018-08-24T09:20:47.126Z,100.00
2018-08-24T09:23:24.825Z,100.00
2018-08-24T09:26:02.784Z,100.00
2018-08-24T09:28:36.567Z,100.00
2018-08-24T09:31:14.797Z,100.00
2018-08-24T09:33:46.968Z,100.00
2018-08-24T09:36:20.067Z,100.00
2018-08-24T09:38:52.644Z,100.00
2018-08-24T09:41:24.847Z,100.00
2018-08-24T09:43:58.868Z,100.00
2018-08-24T09:46:36.620Z,100.00
2018-08-24T09:49:14.530Z,100.00
2018-08-24T09:51:46.625Z,100.00
2018-08-24T09:54:18.847Z,100.00
2018-08-24T09:56:50.977Z,100.00
2018-08-24T09:59:23.032Z,100.00
2018-08-24T10:02:00.720Z,100.00
2018-08-24T10:04:38.487Z,100.00
2018-08-24T10:07:16.235Z,100.00
2018-08-24T10:09:48.262Z,100.00
2018-08-24T10:12:20.456Z,100.00
2018-08-24T10:14:52.530Z,100.00
2018-08-24T10:17:25.840Z,99.65
2018-08-24T10:19:57.935Z,98.86
2018-08-24T10:22:30.584Z,96.12
2018-08-24T10:25:03.061Z,92.68
2018-08-24T10:27:35.190Z,91.83
2018-08-24T10:30:07.287Z,93.91
2018-08-24T10:32:39.400Z,94.35
2018-08-24T10:35:11.498Z,91.23
2018-08-24T10:37:43.578Z,92.09
2018-08-24T10:40:15.685Z,90.12
2018-08-24T10:42:47.761Z,91.49
2018-08-24T10:45:19.835Z,90.86
2018-08-24T10:47:51.919Z,88.95
2018-08-24T10:50:24.024Z,87.74
2018-08-24T10:52:56.123Z,86.62
2018-08-24T10:55:28.533Z,86.39
2018-08-24T10:58:00.604Z,83.27
2018-08-24T11:00:33.072Z,86.04
2018-08-24T11:03:04.909Z,84.94
2018-08-24T11:05:37.001Z,81.59
2018-08-24T11:08:09.119Z,81.67
2018-08-24T11:10:41.238Z,81.33
2018-08-24T11:13:13.367Z,83.94
2018-08-24T11:15:48.652Z,82.67
2018-08-24T11:18:20.736Z,85.26
2018-08-24T11:20:52.874Z,82.80
2018-08-24T11:23:24.974Z,84.19
2018-08-24T11:25:57.061Z,85.83
2018-08-24T11:28:29.139Z,84.68
2018-08-24T11:31:01.288Z,86.61
2018-08-24T11:33:33.346Z,88.41
2018-08-24T11:36:05.342Z,88.65
2018-08-24T11:38:37.334Z,86.40
2018-08-24T11:41:10.011Z,84.71
2018-08-24T11:43:42.125Z,85.42
2018-08-24T11:46:14.227Z,83.54
2018-08-24T11:48:46.376Z,83.75
2018-08-24T11:51:18.461Z,83.67
2018-08-24T11:53:50.580Z,84.33
2018-08-24T11:56:22.694Z,82.64
2018-08-24T11:58:54.879Z,80.65
2018-08-24T12:01:27.022Z,80.95
2018-08-24T12:03:59.115Z,78.25
2018-08-24T12:06:31.254Z,79.86
2018-08-24T12:09:05.131Z,78.81
2018-08-24T12:11:37.252Z,79.79
2018-08-24T12:14:09.397Z,74.74
2018-08-24T12:16:41.479Z,74.32
2018-08-24T12:19:13.539Z,74.43
2018-08-24T12:21:45.712Z,74.07
2018-08-24T12:24:17.839Z,72.25
2018-08-24T12:26:49.834Z,72.60
2018-08-24T12:29:21.982Z,71.94
2018-08-24T12:31:54.056Z,70.24
2018-08-24T12:34:26.208Z,69.99
2018-08-24T12:36:58.297Z,69.06
2018-08-24T12:39:30.386Z,69.25
2018-08-24T12:42:02.452Z,67.98
2018-08-24T12:44:34.557Z,67.80
2018-08-24T12:47:06.780Z,66.29
2018-08-24T12:49:38.886Z,65.60
2018-08-24T12:52:11.146Z,61.78
2018-08-24T12:54:43.158Z,59.70
2018-08-24T12:57:15.264Z,59.97
2018-08-24T12:59:47.470Z,62.58
2018-08-24T13:02:19.461Z,64.87
2018-08-24T13:04:51.522Z,66.57
2018-08-24T13:07:23.620Z,67.43
2018-08-24T13:09:55.689Z,66.19
2018-08-24T13:12:27.723Z,64.58
2018-08-24T13:14:59.772Z,65.47
2018-08-24T13:17:31.852Z,63.02
2018-08-24T13:20:03.973Z,57.36
2018-08-24T13:22:36.053Z,55.04
2018-08-24T13:25:08.088Z,50.97
2018-08-24T13:27:40.168Z,50.76
2018-08-24T13:30:12.238Z,48.04
2018-08-24T13:32:44.375Z,49.28
2018-08-24T13:35:16.510Z,51.86
2018-08-24T13:37:48.653Z,52.66
2018-08-24T13:40:20.697Z,54.21
2018-08-24T13:42:52.776Z,60.88
2018-08-24T13:45:24.874Z,63.49
2018-08-24T13:47:57.152Z,66.37
2018-08-24T13:50:29.204Z,68.28
2018-08-24T13:53:01.453Z,68.25
2018-08-24T13:55:33.478Z,68.03
2018-08-24T13:58:05.598Z,68.23
2018-08-24T14:00:38.246Z,71.08
2018-08-24T14:03:10.316Z,70.99
2018-08-24T14:05:42.356Z,70.91
2018-08-24T14:08:14.444Z,71.94
2018-08-24T14:10:47.937Z,75.36
2018-08-24T14:13:19.999Z,78.85
2018-08-24T14:15:52.034Z,84.76
2018-08-24T14:18:24.098Z,87.93
2018-08-24T14:20:56.258Z,90.23
2018-08-24T14:23:28.219Z,89.56
2018-08-24T14:26:00.291Z,89.78
2018-08-24T14:28:32.341Z,93.63
2018-08-24T14:31:04.508Z,91.32
2018-08-24T14:33:36.584Z,98.31
2018-08-24T14:36:08.605Z,97.23
2018-08-24T14:38:40.671Z,92.22
2018-08-24T14:41:12.713Z,89.71
2018-08-24T14:43:44.778Z,89.67
2018-08-24T14:46:16.823Z,85.96
2018-08-24T14:48:48.869Z,82.75
2018-08-24T14:51:20.944Z,83.25
2018-08-24T14:53:53.135Z,81.29
2018-08-24T14:56:25.215Z,82.52
2018-08-24T14:58:57.288Z,75.91
2018-08-24T15:01:29.516Z,68.00
2018-08-24T15:04:01.564Z,61.28
2018-08-24T15:06:34.787Z,63.48
2018-08-24T15:09:08.241Z,71.36
2018-08-24T15:11:40.311Z,73.95
2018-08-24T15:14:12.404Z,72.64
2018-08-24T15:16:44.488Z,73.61
2018-08-24T15:19:16.555Z,73.44
2018-08-24T15:21:48.587Z,75.13
2018-08-24T15:24:21.714Z,76.97
2018-08-24T15:26:53.797Z,77.72
2018-08-24T15:29:25.998Z,79.56
2018-08-24T15:31:58.020Z,80.23
2018-08-24T15:34:30.202Z,80.34
2018-08-24T15:37:02.261Z,82.65
2018-08-24T15:39:34.339Z,83.39
2018-08-24T15:42:06.449Z,82.23
2018-08-24T15:44:38.552Z,82.97
2018-08-24T15:47:11.056Z,85.37
2018-08-24T15:49:43.098Z,84.49
2018-08-24T15:52:15.168Z,86.42
2018-08-24T15:54:47.262Z,86.28
2018-08-24T15:57:19.301Z,86.00
2018-08-24T15:59:51.422Z,86.36
2018-08-24T16:02:23.497Z,87.55
2018-08-24T16:04:55.572Z,89.83
2018-08-24T16:07:27.723Z,88.25
2018-08-24T16:09:59.829Z,88.13
2018-08-24T16:12:31.875Z,89.04
2018-08-24T16:15:04.081Z,91.19
2018-08-24T16:17:36.154Z,91.10
2018-08-24T16:20:08.320Z,87.29
2018-08-24T16:22:40.387Z,86.74
2018-08-24T16:25:12.681Z,88.63
2018-08-24T16:27:44.884Z,86.72
2018-08-24T16:30:17.032Z,87.85
2018-08-24T16:32:49.126Z,86.26
2018-08-24T16:35:21.213Z,86.27
2018-08-24T16:37:53.278Z,83.83
2018-08-24T16:40:25.495Z,84.93
2018-08-24T16:42:57.596Z,85.18
2018-08-24T16:45:30.684Z,85.33
2018-08-24T16:48:02.780Z,86.41
2018-08-24T16:50:34.862Z,83.00
2018-08-24T16:53:07.016Z,83.89
2018-08-24T16:55:40.337Z,84.72
2018-08-24T16:58:12.509Z,84.07
2018-08-24T17:00:44.614Z,84.81
2018-08-24T17:03:16.730Z,84.42
2018-08-24T17:05:48.875Z,85.13
2018-08-24T17:08:21.056Z,84.22
2018-08-24T17:10:53.127Z,85.34
2018-08-24T17:13:25.213Z,85.95
2018-08-24T17:15:57.524Z,85.62
2018-08-24T17:18:29.633Z,86.70
2018-08-24T17:21:01.796Z,87.17
2018-08-24T17:23:34.891Z,87.54
2018-08-24T17:26:06.960Z,88.84
2018-08-24T17:28:39.057Z,88.70
2018-08-24T17:31:11.086Z,89.87
2018-08-24T17:33:43.172Z,89.35
2018-08-24T17:36:15.231Z,88.77
2018-08-24T17:38:47.260Z,86.67
2018-08-24T17:41:19.343Z,86.77
2018-08-24T17:43:51.467Z,85.95
2018-08-24T17:46:23.583Z,85.87
2018-08-24T17:48:55.717Z,86.51
2018-08-24T17:51:27.865Z,86.76
2018-08-24T17:53:59.979Z,87.10
2018-08-24T17:56:32.171Z,87.43
2018-08-24T17:59:04.249Z,88.04
2018-08-24T18:01:36.274Z,88.92
2018-08-24T18:04:08.347Z,88.62
2018-08-24T18:06:40.404Z,88.55
2018-08-24T18:09:12.501Z,89.44
2018-08-24T18:11:44.588Z,89.60
2018-08-24T18:14:16.739Z,89.96
2018-08-24T18:16:48.844Z,90.76
2018-08-24T18:19:20.936Z,91.04
2018-08-24T18:21:53.001Z,91.44
2018-08-24T18:24:25.203Z,92.55
2018-08-24T18:26:57.329Z,93.29
2018-08-24T18:29:29.451Z,93.25
2018-08-24T18:32:01.530Z,93.34
2018-08-24T18:34:33.596Z,94.65
2018-08-24T18:37:05.708Z,93.34
2018-08-24T18:39:37.738Z,93.03
2018-08-24T18:42:09.830Z,93.59
2018-08-24T18:44:41.901Z,93.42
2018-08-24T18:47:13.961Z,92.98
2018-08-24T18:49:46.002Z,94.71
2018-08-24T18:52:18.059Z,94.79
2018-08-24T18:54:50.198Z,94.07
2018-08-24T18:57:22.226Z,94.59
2018-08-24T18:59:54.246Z,94.61
2018-08-24T19:02:26.532Z,94.84
2018-08-24T19:04:58.604Z,94.38
2018-08-24T19:07:30.722Z,93.99
2018-08-24T19:10:02.864Z,92.48
2018-08-24T19:12:34.945Z,92.36
2018-08-24T19:15:07.224Z,92.07
2018-08-24T19:17:45.164Z,92.86
2018-08-24T19:20:23.101Z,92.46
2018-08-24T19:22:55.270Z,91.62
2018-08-24T19:25:27.336Z,90.48
2018-08-24T19:28:06.059Z,90.33
2018-08-24T19:30:38.132Z,89.05
2018-08-24T19:33:13.156Z,87.91
2018-08-24T19:35:47.727Z,88.25
2018-08-24T19:38:19.878Z,86.45
2018-08-24T19:40:57.645Z,85.55
2018-08-24T19:43:30.999Z,84.68
2018-08-24T19:46:03.143Z,85.19
2018-08-24T19:48:40.873Z,86.53
2018-08-24T19:51:13.182Z,87.46
2018-08-24T19:53:45.260Z,88.09
2018-08-24T19:56:17.556Z,88.80
2018-08-24T19:58:55.495Z,88.75
2018-08-24T20:01:27.660Z,88.07
2018-08-24T20:04:00.033Z,87.87
2018-08-24T20:06:37.947Z,86.91
2018-08-24T20:09:17.314Z,86.85
2018-08-24T20:11:50.803Z,87.67
2018-08-24T20:14:28.463Z,86.61
2018-08-24T20:17:34.557Z,86.43
2018-08-24T20:20:06.740Z,84.82
2018-08-24T20:22:38.799Z,85.50
2018-08-24T20:25:10.880Z,85.22
2018-08-24T20:27:43.003Z,86.01
2018-08-24T20:30:15.129Z,85.04
2018-08-24T20:32:47.253Z,85.38
2018-08-24T20:35:19.437Z,85.74
2018-08-24T20:37:51.585Z,86.64
2018-08-24T20:40:23.760Z,86.80
2018-08-24T20:42:55.903Z,85.86
2018-08-24T20:45:28.005Z,85.60
2018-08-24T20:48:00.555Z,85.65
2018-08-24T20:50:32.739Z,86.01
2018-08-24T20:53:04.810Z,87.62
2018-08-24T20:55:36.964Z,88.29
2018-08-24T20:58:09.050Z,88.16
2018-08-24T21:00:41.155Z,88.52
2018-08-24T21:03:13.264Z,88.86
2018-08-24T21:05:45.457Z,87.72
2018-08-24T21:08:17.552Z,88.97
2018-08-24T21:10:49.709Z,87.97
2018-08-24T21:13:21.808Z,88.65
2018-08-24T21:15:53.924Z,88.25
2018-08-24T21:18:27.070Z,89.25
2018-08-24T21:20:59.251Z,88.64
2018-08-24T21:23:31.429Z,88.18
2018-08-24T21:26:03.568Z,88.13
2018-08-24T21:28:35.718Z,88.96
2018-08-24T21:31:08.413Z,88.31
2018-08-24T21:33:40.540Z,89.13
2018-08-24T21:36:12.844Z,89.26
2018-08-24T21:38:44.921Z,89.48
2018-08-24T21:41:17.138Z,89.67
2018-08-24T21:43:50.024Z,89.18
2018-08-24T21:46:22.134Z,90.00
2018-08-24T21:48:54.253Z,89.78
2018-08-24T21:51:26.326Z,90.28
2018-08-24T21:53:58.785Z,90.43
2018-08-24T21:56:31.009Z,89.37
2018-08-24T21:59:03.147Z,90.20
2018-08-24T22:01:35.345Z,89.84
2018-08-24T22:04:07.419Z,90.10
2018-08-24T22:06:39.582Z,90.01
2018-08-24T22:09:11.751Z,89.52
2018-08-24T22:11:43.848Z,89.63
2018-08-24T22:14:15.980Z,89.82
2018-08-24T22:16:54.867Z,89.91
2018-08-24T22:19:27.024Z,90.12
2018-08-24T22:21:59.161Z,89.18
2018-08-24T22:24:31.331Z,89.10
2018-08-24T22:27:03.765Z,88.48
2018-08-24T22:29:35.827Z,88.96
2018-08-24T22:32:07.932Z,89.35
2018-08-24T22:34:40.042Z,89.33
2018-08-24T22:37:12.191Z,89.83
2018-08-24T22:39:44.499Z,90.18
2018-08-24T22:42:16.584Z,90.27
2018-08-24T22:44:48.672Z,90.82
2018-08-24T22:47:20.768Z,90.07
2018-08-24T22:49:52.910Z,90.44
2018-08-24T22:52:25.039Z,90.78
2018-08-24T22:54:57.162Z,91.11
2018-08-24T22:57:29.337Z,91.71
2018-08-24T23:00:01.445Z,91.75
2018-08-24T23:02:34.081Z,92.19
2018-08-24T23:05:06.236Z,92.83
2018-08-24T23:07:38.318Z,92.51
2018-08-24T23:10:10.429Z,92.48
2018-08-24T23:12:42.702Z,93.39
2018-08-24T23:15:14.858Z,93.29
2018-08-24T23:17:46.962Z,94.11
2018-08-24T23:20:19.053Z,94.36
2018-08-24T23:22:51.148Z,95.11
2018-08-24T23:25:23.248Z,95.21
2018-08-24T23:27:55.350Z,96.17
2018-08-24T23:30:27.581Z,96.34
2018-08-24T23:32:59.689Z,96.53
2018-08-24T23:35:31.912Z,97.02
2018-08-24T23:38:04.046Z,97.73
2018-08-24T23:40:36.120Z,97.62
2018-08-24T23:43:08.197Z,97.01
2018-08-24T23:45:40.340Z,97.58
2018-08-24T23:48:12.415Z,98.22
2018-08-24T23:50:44.502Z,98.76
2018-08-24T23:53:16.628Z,99.47
2018-08-24T23:55:48.760Z,99.63
2018-08-24T23:58:20.827Z,100.00
